Time;durP1;ratioP1;P1;durP2;ratioP2;P2;SDS_P1;SDS_P2;PMS_P1;PMS_P2;Temp;Humidity;BMP_temperature;BMP_pressure;BME280_temperature;BME280_humidity;BME280_pressure;Samples;Min_cycle;Max_cycle;Signal;HPM_P1;HPM_P2
2024/04/04 00:03:43;;;;;;;19.02;2.92;;;10.30;99.90;;;;;;10422347;28;20048;-51
2024/04/04 00:08:47;;;;;;;14.80;2.08;;;10.40;99.90;;;;;;10427385;28;20053;-53
2024/04/04 00:13:51;;;;;;;23.00;2.22;;;10.60;99.90;;;;;;10428855;28;21310;-52
2024/04/04 00:18:55;;;;;;;17.00;2.42;;;10.30;99.90;;;;;;10428043;28;20492;-51
2024/04/04 00:23:58;;;;;;;13.82;2.45;;;10.50;99.90;;;;;;10428062;28;20047;-53
2024/04/04 00:29:04;;;;;;;;;;;10.80;99.90;;;;;;10428710;28;20061;-52
2024/04/04 00:34:06;;;;;;;22.70;3.30;;;11.00;99.90;;;;;;10429145;28;19932;-52
2024/04/04 00:39:08;;;;;;;12.65;1.67;;;11.30;99.90;;;;;;10423228;28;20060;-53
2024/04/04 00:44:12;;;;;;;15.47;2.13;;;10.90;99.90;;;;;;10433502;28;20133;-54
2024/04/04 00:49:14;;;;;;;10.55;1.60;;;10.60;99.90;;;;;;10436664;28;20087;-50
2024/04/04 00:54:17;;;;;;;12.27;1.48;;;10.70;99.90;;;;;;10434598;28;20064;-53
2024/04/04 00:59:23;;;;;;;14.00;1.75;;;11.00;99.90;;;;;;10432204;28;20064;-53
2024/04/04 01:04:25;;;;;;;9.65;2.03;;;10.90;99.90;;;;;;10430150;28;20045;-50
2024/04/04 01:09:27;;;;;;;10.32;1.30;;;11.50;99.90;;;;;;10432459;28;20053;-53
2024/04/04 01:14:32;;;;;;;10.15;2.30;;;12.60;99.90;;;;;;10433228;28;20041;-52
2024/04/04 01:19:34;;;;;;;25.15;2.33;;;12.10;99.90;;;;;;10432470;28;20069;-50
2024/04/04 01:24:39;;;;;;;14.90;2.08;;;11.50;99.90;;;;;;10431079;28;20191;-51
2024/04/04 01:29:41;;;;;;;16.83;2.28;;;11.40;99.90;;;;;;10433552;28;20053;-51
2024/04/04 01:34:43;;;;;;;11.55;1.92;;;11.30;99.90;;;;;;10427980;28;20103;-52
2024/04/04 01:39:47;;;;;;;16.55;2.08;;;11.70;99.90;;;;;;10422186;28;20069;-53
2024/04/04 01:44:48;;;;;;;7.97;1.90;;;11.80;99.90;;;;;;10432029;28;20048;-49
2024/04/04 01:49:56;;;;;;;11.48;1.88;;;11.60;99.90;;;;;;10432360;28;20083;-49
2024/04/04 01:54:59;;;;;;;12.23;2.15;;;12.80;99.90;;;;;;10438812;28;20253;-50
2024/04/04 02:00:05;;;;;;;21.73;2.22;;;11.80;99.90;;;;;;10436267;28;20052;-50
2024/04/04 02:05:07;;;;;;;10.27;2.20;;;11.40;99.90;;;;;;10435985;28;20150;-51
2024/04/04 02:10:12;;;;;;;;;;;12.20;99.90;;;;;;10436354;28;20072;-52
2024/04/04 02:15:15;;;;;;;14.57;1.95;;;13.00;99.90;;;;;;10435105;28;19924;-53
2024/04/04 02:20:17;;;;;;;6.95;1.50;;;13.20;99.90;;;;;;10431036;28;20060;-52
2024/04/04 02:25:20;;;;;;;8.10;1.50;;;13.10;99.90;;;;;;10432434;28;20053;-56
2024/04/04 02:30:22;;;;;;;11.88;2.00;;;13.90;99.90;;;;;;10426818;28;20041;-54
2024/04/04 02:35:24;;;;;;;10.98;1.30;;;14.80;99.90;;;;;;10429668;28;20168;-50
2024/04/04 02:40:29;;;;;;;13.60;2.53;;;15.40;99.90;;;;;;10420971;28;20052;-53
2024/04/04 02:45:32;;;;;;;13.27;2.45;;;15.10;99.90;;;;;;10429736;28;20052;-50
2024/04/04 02:50:37;;;;;;;11.73;2.10;;;14.90;99.90;;;;;;10428696;28;20049;-52
2024/04/04 02:55:57;;;;;;;4.30;1.60;;;15.50;99.90;;;;;;10427900;28;20056;-52
2024/04/04 03:01:05;;;;;;;6.07;2.20;;;15.80;99.90;;;;;;10429056;28;20071;-54
2024/04/04 03:06:07;;;;;;;8.27;2.47;;;16.00;99.90;;;;;;10429120;28;20053;-52
2024/04/04 03:11:11;;;;;;;10.68;2.17;;;15.10;99.90;;;;;;10434327;28;20065;-50
2024/04/04 03:16:13;;;;;;;12.27;2.80;;;15.50;99.90;;;;;;10429777;28;20554;-51
2024/04/04 03:21:15;;;;;;;7.73;2.67;;;15.40;99.90;;;;;;10427172;28;20053;-53
2024/04/04 03:26:22;;;;;;;7.20;2.72;;;15.60;99.90;;;;;;10428991;28;20056;-53
2024/04/04 03:31:25;;;;;;;0.10;0.10;;;15.40;99.90;;;;;;10429777;28;20060;-52
2024/04/04 03:36:28;;;;;;;0.03;0.03;;;15.20;99.90;;;;;;10428808;28;20044;-53
2024/04/04 03:41:35;;;;;;;0.73;0.60;;;15.70;99.90;;;;;;10429679;28;20195;-54
2024/04/04 03:46:37;;;;;;;0.10;0.10;;;15.60;99.90;;;;;;10426751;28;20582;-53
2024/04/04 03:51:39;;;;;;;0.97;0.93;;;15.90;99.90;;;;;;10426946;28;20656;-51
2024/04/04 03:56:47;;;;;;;0.00;0.00;;;16.10;99.90;;;;;;10428176;28;20056;-53
2024/04/04 04:01:50;;;;;;;0.35;0.35;;;14.90;99.90;;;;;;10427102;28;20131;-55
2024/04/04 04:06:52;;;;;;;0.10;0.10;;;14.30;99.90;;;;;;10428310;28;20053;-52
2024/04/04 04:11:57;;;;;;;0.00;0.00;;;14.90;99.90;;;;;;10426424;28;20060;-55
2024/04/04 04:17:01;;;;;;;0.10;0.10;;;15.40;99.90;;;;;;10427458;28;20052;-52
2024/04/04 04:22:06;;;;;;;0.00;0.00;;;15.30;99.90;;;;;;10436348;28;20401;-51
2024/04/04 04:27:09;;;;;;;0.10;0.10;;;15.60;99.90;;;;;;10435179;28;20118;-54
2024/04/04 04:32:12;;;;;;;0.08;0.08;;;14.30;99.90;;;;;;10435757;28;23104;-54
2024/04/04 04:37:16;;;;;;;0.10;0.10;;;14.30;99.90;;;;;;10430968;28;20788;-53
2024/04/04 04:42:21;;;;;;;0.10;0.10;;;13.90;99.90;;;;;;10436046;28;20045;-49
2024/04/04 04:47:26;;;;;;;0.20;0.20;;;12.70;99.90;;;;;;10433177;28;20053;-50
2024/04/04 04:52:30;;;;;;;0.10;0.10;;;13.30;99.90;;;;;;10433425;28;20049;-52
2024/04/04 04:57:36;;;;;;;0.08;0.08;;;13.40;99.90;;;;;;10428648;28;20049;-50
2024/04/04 05:02:44;;;;;;;0.10;0.10;;;13.40;99.90;;;;;;10430252;28;20609;-55
2024/04/04 05:07:51;;;;;;;0.10;0.10;;;12.50;99.90;;;;;;10428188;28;20174;-50
2024/04/04 05:12:57;;;;;;;0.10;0.10;;;12.70;99.90;;;;;;10428888;28;20045;-55
2024/04/04 05:18:03;;;;;;;0.10;0.10;;;12.70;99.90;;;;;;10431382;28;20057;-52
2024/04/04 05:23:05;;;;;;;0.10;0.10;;;12.30;99.90;;;;;;10430540;28;20099;-53
2024/04/04 05:28:09;;;;;;;0.07;0.07;;;12.70;99.90;;;;;;10430561;28;20145;-49
2024/04/04 05:33:11;;;;;;;0.10;0.10;;;12.00;99.90;;;;;;10426214;28;20504;-50
2024/04/04 05:38:13;;;;;;;0.05;0.05;;;11.80;99.90;;;;;;10424961;28;20053;-50
2024/04/04 05:43:19;;;;;;;0.00;0.00;;;12.50;99.90;;;;;;10432379;28;20661;-51
2024/04/04 05:48:20;;;;;;;0.10;0.10;;;12.00;99.90;;;;;;10432158;28;20053;-52
2024/04/04 05:53:23;;;;;;;0.10;0.10;;;11.90;99.90;;;;;;10430784;28;20048;-53
2024/04/04 05:58:28;;;;;;;0.07;0.07;;;11.90;99.90;;;;;;10432758;28;20059;-53
2024/04/04 06:03:34;;;;;;;0.10;0.10;;;12.10;99.90;;;;;;10434027;28;21124;-52
2024/04/04 06:08:36;;;;;;;0.32;0.32;;;12.00;99.90;;;;;;10437303;28;20146;-55
2024/04/04 06:13:42;;;;;;;0.10;0.10;;;11.90;99.90;;;;;;10428409;28;20475;-54
2024/04/04 06:18:46;;;;;;;0.10;0.10;;;11.90;99.90;;;;;;10424058;28;20222;-53
2024/04/04 06:23:47;;;;;;;;;;;11.80;99.90;;;;;;10422309;28;20049;-53
2024/04/04 06:28:50;;;;;;;1.00;1.00;;;12.00;99.90;;;;;;10422796;28;19924;-53
2024/04/04 06:33:53;;;;;;;2.20;1.55;;;12.00;99.90;;;;;;10426219;28;20052;-53
2024/04/04 06:38:58;;;;;;;0.57;0.57;;;12.00;99.90;;;;;;10420981;28;20978;-53
2024/04/04 06:44:01;;;;;;;0.10;0.10;;;12.00;99.90;;;;;;10425225;28;20118;-53
2024/04/04 06:49:04;;;;;;;0.10;0.10;;;12.00;99.90;;;;;;10424806;28;20125;-52
2024/04/04 06:54:10;;;;;;;0.10;0.10;;;12.20;99.90;;;;;;10419252;28;20077;-53
2024/04/04 06:59:14;;;;;;;3.60;2.10;;;12.10;99.90;;;;;;10422934;28;20049;-51
2024/04/04 07:04:19;;;;;;;0.73;0.52;;;12.20;99.90;;;;;;10427563;28;20099;-54
2024/04/04 07:09:21;;;;;;;0.00;0.00;;;12.20;99.90;;;;;;10424894;28;20106;-51
2024/04/04 07:14:26;;;;;;;0.52;0.52;;;12.20;99.90;;;;;;10422867;28;20053;-57
2024/04/04 07:19:34;;;;;;;0.28;0.28;;;12.30;99.90;;;;;;10419528;28;20061;-53
2024/04/04 07:24:36;;;;;;;0.30;0.30;;;12.20;99.90;;;;;;10427452;28;20053;-54
2024/04/04 07:29:43;;;;;;;0.00;0.00;;;12.20;99.90;;;;;;10423125;28;20059;-51
2024/04/04 07:34:45;;;;;;;0.40;0.40;;;12.20;99.90;;;;;;10422663;28;22483;-51
2024/04/04 07:39:47;;;;;;;0.10;0.10;;;12.30;99.90;;;;;;10423201;28;20690;-55
2024/04/04 07:44:52;;;;;;;0.00;0.00;;;12.20;99.90;;;;;;10421877;28;20056;-52
2024/04/04 07:49:54;;;;;;;0.10;0.10;;;12.20;99.90;;;;;;10420348;28;20574;-54
2024/04/04 07:54:56;;;;;;;0.10;0.10;;;12.30;99.90;;;;;;10422020;28;20142;-51
2024/04/04 07:59:59;;;;;;;0.50;0.50;;;12.30;99.90;;;;;;10441488;28;20055;-51
2024/04/04 08:05:02;;;;;;;0.25;0.25;;;12.10;99.90;;;;;;10439786;28;20067;-48
2024/04/04 08:10:06;;;;;;;0.98;0.90;;;12.30;99.90;;;;;;10437366;28;20829;-53
2024/04/04 08:15:17;;;;;;;19.58;3.30;;;12.20;99.90;;;;;;10425485;28;20504;-49
2024/04/04 08:20:22;;;;;;;19.05;3.13;;;12.30;99.90;;;;;;10420148;28;20541;-52
2024/04/04 08:25:26;;;;;;;20.30;3.33;;;12.20;99.90;;;;;;10414022;28;20401;-51
2024/04/04 08:30:29;;;;;;;28.50;3.95;;;12.20;99.90;;;;;;10394953;28;20059;-53
2024/04/04 08:35:34;;;;;;;12.93;2.00;;;12.10;99.90;;;;;;10415431;28;20563;-50
2024/04/04 08:40:39;;;;;;;19.48;3.65;;;12.30;99.90;;;;;;10420369;28;20044;-51
2024/04/04 08:45:47;;;;;;;18.08;2.75;;;12.40;99.90;;;;;;10420878;28;20056;-49
2024/04/04 08:50:49;;;;;;;29.75;3.58;;;12.20;99.90;;;;;;10416645;28;20053;-53
2024/04/04 08:55:56;;;;;;;17.43;3.40;;;12.40;99.90;;;;;;10417111;28;20053;-53
2024/04/04 09:01:03;;;;;;;29.42;4.15;;;12.50;99.90;;;;;;10417054;28;20054;-51
2024/04/04 09:06:18;;;;;;;10.25;2.30;;;12.40;99.90;;;;;;10425527;28;20473;-53
2024/04/04 09:11:28;;;;;;;26.58;3.78;;;12.20;99.90;;;;;;10424617;28;20064;-52
2024/04/04 09:16:32;;;;;;;21.48;3.65;;;12.40;99.90;;;;;;10437577;28;20076;-51
2024/04/04 09:21:37;;;;;;;24.17;3.47;;;12.20;99.90;;;;;;10431276;28;20068;-52
2024/04/04 09:26:40;;;;;;;17.52;3.50;;;12.20;99.90;;;;;;10419161;28;20168;-50
2024/04/04 09:31:44;;;;;;;22.30;4.40;;;12.30;99.90;;;;;;10422553;28;20052;-56
2024/04/04 09:36:47;;;;;;;20.55;3.42;;;12.30;99.90;;;;;;10424136;28;20117;-54
2024/04/04 09:41:52;;;;;;;30.42;5.03;;;12.60;99.90;;;;;;10423581;28;20061;-53
2024/04/04 09:46:58;;;;;;;24.15;3.17;;;12.40;99.90;;;;;;10420108;28;20068;-54
2024/04/04 09:52:07;;;;;;;27.05;6.40;;;12.50;99.90;;;;;;10424209;28;20048;-53
2024/04/04 09:57:09;;;;;;;26.20;4.13;;;12.60;99.90;;;;;;10420635;28;20108;-55
2024/04/04 10:02:16;;;;;;;33.80;5.43;;;12.80;99.90;;;;;;10413833;28;20049;-54
2024/04/04 10:07:26;;;;;;;24.35;3.80;;;12.70;99.90;;;;;;10416031;28;20049;-51
2024/04/04 10:12:41;;;;;;;24.05;2.78;;;13.10;99.90;;;;;;10417572;28;20052;-52
2024/04/04 10:17:46;;;;;;;22.85;4.68;;;13.20;99.90;;;;;;10428090;28;20396;-52
2024/04/04 10:22:58;;;;;;;29.08;4.50;;;12.80;99.90;;;;;;10425022;28;20067;-52
2024/04/04 10:28:09;;;;;;;36.05;4.22;;;13.00;99.90;;;;;;10433356;28;20076;-53
2024/04/04 10:33:13;;;;;;;18.85;3.60;;;13.10;99.90;;;;;;10425070;28;20052;-53
2024/04/04 10:38:16;;;;;;;38.83;6.10;;;13.10;99.90;;;;;;10420902;28;20911;-54
2024/04/04 10:43:18;;;;;;;30.42;5.07;;;13.30;99.90;;;;;;10425319;28;20087;-56
2024/04/04 10:48:23;;;;;;;17.33;2.80;;;13.30;99.90;;;;;;10413604;28;20052;-55
2024/04/04 10:53:25;;;;;;;49.78;9.20;;;13.30;99.90;;;;;;10419338;28;20048;-51
2024/04/04 10:58:29;;;;;;;39.17;6.30;;;13.40;99.90;;;;;;10419086;28;20516;-55
2024/04/04 11:03:33;;;;;;;51.00;5.78;;;13.40;99.90;;;;;;10420647;28;20075;-53
2024/04/04 11:08:35;;;;;;;28.52;4.55;;;13.40;99.90;;;;;;10419173;28;20550;-51
2024/04/04 11:13:39;;;;;;;45.30;7.10;;;13.20;99.90;;;;;;10418230;28;20064;-55
2024/04/04 11:18:43;;;;;;;47.08;8.20;;;13.30;99.90;;;;;;10421588;28;20143;-54
2024/04/04 11:23:45;;;;;;;41.03;6.20;;;13.10;99.90;;;;;;10418392;28;20071;-52
2024/04/04 11:28:47;;;;;;;42.25;7.50;;;13.10;99.90;;;;;;10420701;28;20083;-50
2024/04/04 11:33:53;;;;;;;50.80;6.97;;;13.40;99.90;;;;;;10412358;28;20041;-56
2024/04/04 11:39:00;;;;;;;47.08;7.22;;;13.40;99.90;;;;;;10420613;28;20064;-53
2024/04/04 11:44:02;;;;;;;39.22;7.18;;;13.60;99.90;;;;;;10419470;28;20053;-55
2024/04/04 11:49:09;;;;;;;39.03;6.72;;;13.50;99.90;;;;;;10420389;28;20071;-53
2024/04/04 11:54:11;;;;;;;45.00;8.07;;;13.90;99.90;;;;;;10422642;28;20045;-55
2024/04/04 11:59:17;;;;;;;46.60;6.87;;;13.80;99.90;;;;;;10417299;28;20079;-56
2024/04/04 12:04:22;;;;;;;36.47;6.03;;;14.10;99.90;;;;;;10423258;28;20083;-53
2024/04/04 12:09:24;;;;;;;49.35;6.90;;;14.40;99.90;;;;;;10424248;28;20064;-54
2024/04/04 12:14:26;;;;;;;51.13;9.57;;;14.80;99.90;;;;;;10423716;28;20064;-55
2024/04/04 12:19:34;;;;;;;70.35;12.85;;;14.50;99.90;;;;;;10427116;28;20045;-53
2024/04/04 12:24:39;;;;;;;72.90;11.23;;;14.60;99.90;;;;;;10423791;28;20045;-55
2024/04/04 12:29:43;;;;;;;73.57;10.90;;;14.40;99.90;;;;;;10425219;28;20376;-52
2024/04/04 12:34:48;;;;;;;47.60;8.93;;;14.40;99.90;;;;;;10424924;28;20605;-51
2024/04/04 12:39:50;;;;;;;59.50;10.13;;;14.50;99.90;;;;;;10425940;28;20057;-52
2024/04/04 12:44:53;;;;;;;62.23;11.57;;;15.10;99.90;;;;;;10427158;28;20079;-55
2024/04/04 12:49:56;;;;;;;62.38;10.80;;;14.80;99.90;;;;;;10427613;28;23107;-52
2024/04/04 12:54:58;;;;;;;45.45;8.55;;;14.80;99.90;;;;;;10430438;28;20159;-54
2024/04/04 13:00:00;;;;;;;49.65;8.55;;;14.50;99.90;;;;;;10429381;28;20063;-53
2024/04/04 13:05:05;;;;;;;63.10;9.65;;;14.50;99.90;;;;;;10435721;28;20495;-52
2024/04/04 13:10:08;;;;;;;41.90;7.07;;;14.70;99.90;;;;;;10432889;28;20443;-55
2024/04/04 13:15:10;;;;;;;45.95;7.32;;;14.80;99.90;;;;;;10433806;28;20082;-52
2024/04/04 13:20:13;;;;;;;36.53;7.07;;;14.50;99.90;;;;;;10425662;28;20817;-54
2024/04/04 13:25:18;;;;;;;65.47;12.38;;;14.70;99.90;;;;;;10426662;28;20854;-54
2024/04/04 13:30:20;;;;;;;63.17;9.70;;;14.60;99.90;;;;;;10430031;28;20081;-54
2024/04/04 13:35:24;;;;;;;66.65;11.10;;;14.80;99.90;;;;;;10426104;28;20060;-54
2024/04/04 13:40:27;;;;;;;55.47;10.80;;;15.00;99.90;;;;;;10428349;28;20064;-53
2024/04/04 13:45:29;;;;;;;37.27;7.83;;;15.10;99.90;;;;;;10427367;28;20078;-50
2024/04/04 13:50:35;;;;;;;47.63;8.50;;;15.20;99.90;;;;;;10425664;28;20056;-51
2024/04/04 13:55:37;;;;;;;53.28;10.73;;;14.80;99.90;;;;;;10421309;28;20515;-50
2024/04/04 14:00:39;;;;;;;58.05;8.00;;;14.80;99.90;;;;;;10426718;28;20041;-59
2024/04/04 14:05:42;;;;;;;53.73;9.57;;;15.00;99.90;;;;;;10424089;28;20055;-52
2024/04/04 14:10:49;;;;;;;66.28;10.75;;;15.30;99.90;;;;;;10428588;28;20052;-52
2024/04/04 14:15:52;;;;;;;57.22;11.13;;;15.10;99.90;;;;;;10432480;28;20131;-53
2024/04/04 14:20:56;;;;;;;44.08;8.52;;;15.80;99.90;;;;;;10427631;28;20057;-56
2024/04/04 14:26:00;;;;;;;67.93;10.43;;;16.00;99.90;;;;;;10420442;28;20056;-55
2024/04/04 14:31:02;;;;;;;50.75;8.18;;;15.80;99.90;;;;;;10423105;28;20049;-54
2024/04/04 14:36:06;;;;;;;62.80;10.73;;;16.50;99.90;;;;;;10424568;28;20172;-53
2024/04/04 14:41:08;;;;;;;59.33;10.32;;;16.90;99.90;;;;;;10428924;28;20065;-52
2024/04/04 14:46:13;;;;;;;66.75;12.57;;;17.10;99.90;;;;;;10423118;28;20385;-52
2024/04/04 14:51:17;;;;;;;69.25;12.02;;;16.90;99.90;;;;;;10418088;28;20609;-52
2024/04/04 14:56:20;;;;;;;62.28;9.63;;;16.40;99.90;;;;;;10421108;28;20041;-57
2024/04/04 15:01:22;;;;;;;71.85;13.85;;;16.80;99.90;;;;;;10426501;28;20081;-52
2024/04/04 15:06:26;;;;;;;70.43;11.90;;;17.50;99.90;;;;;;10419280;28;20637;-52
2024/04/04 15:11:28;;;;;;;59.65;11.93;;;17.70;99.90;;;;;;10425894;28;20122;-52
2024/04/04 15:16:30;;;;;;;69.18;12.05;;;17.70;99.90;;;;;;10417591;28;20059;-52
2024/04/04 15:21:34;;;;;;;54.10;10.45;;;18.30;99.90;;;;;;10419374;28;20048;-54
2024/04/04 15:26:37;;;;;;;60.63;10.30;;;18.60;99.90;;;;;;10420475;28;20167;-54
2024/04/04 15:31:44;;;;;;;71.28;9.13;;;17.60;99.90;;;;;;10419398;28;20049;-52
2024/04/04 15:36:48;;;;;;;68.65;11.80;;;16.90;99.90;;;;;;10418586;28;20048;-55
2024/04/04 15:41:59;;;;;;;74.03;11.25;;;15.80;99.90;;;;;;10412155;28;20044;-53
2024/04/04 15:47:10;;;;;;;62.78;9.85;;;15.60;99.90;;;;;;10416087;28;20767;-53
2024/04/04 15:52:15;;;;;;;72.22;11.93;;;15.80;99.90;;;;;;10415796;28;20052;-52
2024/04/04 15:57:18;;;;;;;73.18;11.70;;;15.30;99.90;;;;;;10421105;28;20120;-53
2024/04/04 16:02:27;;;;;;;63.70;10.90;;;15.10;99.90;;;;;;10422293;28;20053;-53
2024/04/04 16:07:31;;;;;;;44.90;7.50;;;15.30;99.90;;;;;;10424902;28;20060;-52
2024/04/04 16:12:33;;;;;;;61.97;11.15;;;15.10;99.90;;;;;;10414599;28;20682;-57
2024/04/04 16:17:37;;;;;;;78.47;11.95;;;14.40;99.90;;;;;;10420495;28;20049;-53
2024/04/04 16:22:43;;;;;;;75.22;11.90;;;14.40;99.90;;;;;;10415566;28;20110;-52
2024/04/04 16:27:48;;;;;;;69.68;11.70;;;14.50;99.90;;;;;;10417009;28;20037;-52
2024/04/04 16:32:52;;;;;;;67.88;11.10;;;14.60;99.90;;;;;;10416110;28;20103;-55
2024/04/04 16:37:55;;;;;;;74.55;11.88;;;15.00;99.90;;;;;;10422580;28;20108;-52
2024/04/04 16:42:58;;;;;;;70.10;10.75;;;14.80;99.90;;;;;;10411508;28;20144;-55
2024/04/04 16:48:01;;;;;;;80.47;10.07;;;14.50;99.90;;;;;;10417509;28;20045;-52
2024/04/04 16:53:09;;;;;;;67.63;10.03;;;14.30;99.90;;;;;;10412247;28;20057;-54
2024/04/04 16:58:11;;;;;;;86.97;13.50;;;14.60;99.90;;;;;;10409763;28;20534;-53
2024/04/04 17:03:18;;;;;;;98.60;17.33;;;13.80;99.90;;;;;;10414595;28;20049;-56
2024/04/04 17:08:22;;;;;;;80.50;12.82;;;14.10;99.90;;;;;;10410187;28;20140;-54
2024/04/04 17:13:25;;;;;;;61.85;8.13;;;14.10;99.90;;;;;;10410601;28;20064;-54
2024/04/04 17:18:27;;;;;;;;;;;13.90;99.90;;;;;;10413952;28;20073;-55
2024/04/04 17:23:31;;;;;;;72.75;9.90;;;13.60;99.90;;;;;;10413149;28;19924;-54
2024/04/04 17:28:37;;;;;;;64.65;10.85;;;13.60;99.90;;;;;;10422153;28;20383;-53
2024/04/04 17:33:41;;;;;;;87.75;12.38;;;13.40;99.90;;;;;;10420629;28;20116;-49
2024/04/04 17:38:49;;;;;;;83.95;12.75;;;13.20;99.90;;;;;;10418943;28;20049;-52
2024/04/04 17:43:52;;;;;;;70.65;10.25;;;12.90;99.90;;;;;;10420673;28;20068;-51
2024/04/04 17:48:54;;;;;;;71.28;12.02;;;12.90;99.90;;;;;;10418081;28;20064;-52
2024/04/04 17:53:57;;;;;;;97.13;16.30;;;13.00;99.90;;;;;;10419601;28;20767;-54
2024/04/04 17:59:00;;;;;;;75.93;12.18;;;12.60;99.90;;;;;;10422660;28;20049;-53
2024/04/04 18:04:03;;;;;;;56.35;8.82;;;12.80;99.90;;;;;;10409843;28;20053;-52
2024/04/04 18:09:07;;;;;;;71.93;10.40;;;12.60;99.90;;;;;;10421395;28;20045;-54
2024/04/04 18:14:10;;;;;;;67.45;11.52;;;12.70;99.90;;;;;;10418409;28;20057;-55
2024/04/04 18:19:14;;;;;;;82.40;10.75;;;12.80;99.90;;;;;;10422088;28;20060;-53
2024/04/04 18:24:23;;;;;;;94.85;16.65;;;12.70;99.90;;;;;;10428685;28;20396;-52
2024/04/04 18:29:26;;;;;;;86.57;11.25;;;12.30;99.90;;;;;;10424750;28;20057;-51
2024/04/04 18:34:31;;;;;;;72.63;10.82;;;12.40;99.90;;;;;;10419949;28;20076;-51
2024/04/04 18:39:34;;;;;;;59.78;9.43;;;12.40;99.90;;;;;;10425007;28;20853;-54
2024/04/04 18:44:38;;;;;;;63.17;7.78;;;12.60;99.90;;;;;;10415397;28;20061;-54
2024/04/04 18:49:40;;;;;;;56.17;6.95;;;12.50;99.90;;;;;;10414807;28;20049;-53
2024/04/04 18:54:43;;;;;;;46.13;7.30;;;12.30;99.90;;;;;;10408612;28;20052;-53
2024/04/04 18:59:51;;;;;;;46.67;8.40;;;12.60;99.90;;;;;;10408540;28;20079;-50
2024/04/04 19:04:58;;;;;;;48.65;7.72;;;12.40;99.90;;;;;;10408108;28;20094;-53
2024/04/04 19:10:02;;;;;;;50.95;7.10;;;12.70;99.90;;;;;;10409802;28;20190;-57
2024/04/04 19:15:09;;;;;;;30.15;5.60;;;12.70;99.90;;;;;;10414517;28;20094;-54
2024/04/04 19:20:12;;;;;;;48.72;7.13;;;12.70;99.90;;;;;;10411268;28;20064;-56
2024/04/04 19:25:17;;;;;;;55.47;6.82;;;12.80;99.90;;;;;;10406803;28;20592;-56
2024/04/04 19:30:36;;;;;;;36.35;6.28;;;12.40;99.90;;;;;;10407883;28;20178;-55
2024/04/04 19:35:44;;;;;;;40.20;6.22;;;12.50;99.90;;;;;;10410300;28;20064;-55
2024/04/04 19:40:51;;;;;;;42.83;6.88;;;12.60;99.90;;;;;;10408530;28;20769;-56
2024/04/04 19:45:56;;;;;;;44.78;5.60;;;12.50;99.90;;;;;;10409623;28;20068;-57
2024/04/04 19:50:59;;;;;;;51.92;8.85;;;12.40;99.90;;;;;;10408593;28;20179;-57
2024/04/04 19:56:05;;;;;;;47.20;6.43;;;12.70;99.90;;;;;;10408772;28;20036;-53
2024/04/04 20:01:07;;;;;;;52.17;7.22;;;12.50;99.90;;;;;;10412128;28;20049;-52
2024/04/04 20:06:15;;;;;;;54.40;7.50;;;12.60;99.90;;;;;;10409586;28;20053;-57
2024/04/04 20:11:24;;;;;;;37.03;4.82;;;12.50;99.90;;;;;;10419932;28;22318;-57
2024/04/04 20:16:26;;;;;;;46.75;7.07;;;12.60;99.90;;;;;;10411781;28;20053;-52
2024/04/04 20:21:28;;;;;;;37.63;6.88;;;12.60;99.90;;;;;;10407801;28;20056;-52
2024/04/04 20:26:44;;;;;;;42.83;6.90;;;12.80;99.90;;;;;;10413833;28;20144;-53
2024/04/04 20:31:50;;;;;;;40.30;5.93;;;12.70;99.90;;;;;;10411217;28;20595;-52
2024/04/04 20:36:52;;;;;;;34.58;5.20;;;12.60;99.90;;;;;;10410200;28;20053;-53
2024/04/04 20:41:56;;;;;;;25.58;5.00;;;12.50;99.90;;;;;;10410591;28;20088;-54
2024/04/04 20:46:59;;;;;;;46.63;9.48;;;12.40;99.90;;;;;;10413109;28;20144;-54
2024/04/04 20:52:05;;;;;;;41.67;5.85;;;12.40;99.90;;;;;;10412247;28;20049;-55
2024/04/04 20:57:12;;;;;;;58.35;9.45;;;12.40;99.90;;;;;;10416987;28;20368;-51
2024/04/04 21:02:23;;;;;;;43.50;7.00;;;12.30;99.90;;;;;;10416493;28;20061;-55
2024/04/04 21:07:25;;;;;;;47.92;8.00;;;12.30;99.90;;;;;;10426009;28;20065;-54
2024/04/04 21:12:29;;;;;;;30.53;5.30;;;12.20;99.90;;;;;;10426113;28;20063;-53
2024/04/04 21:17:34;;;;;;;30.55;4.18;;;12.40;99.90;;;;;;10425579;28;20133;-54
2024/04/04 21:22:37;;;;;;;44.13;6.13;;;12.60;99.90;;;;;;10424273;28;20052;-53
2024/04/04 21:27:41;;;;;;;36.53;5.25;;;12.40;99.90;;;;;;10422799;28;20055;-53
2024/04/04 21:32:43;;;;;;;62.25;8.88;;;12.50;99.90;;;;;;10422403;28;20060;-53
2024/04/04 21:37:45;;;;;;;68.23;10.77;;;12.40;99.90;;;;;;10422813;28;20049;-53
2024/04/04 21:42:53;;;;;;;49.53;8.98;;;12.40;99.90;;;;;;10421112;28;20057;-53
2024/04/04 21:47:56;;;;;;;55.60;7.15;;;12.70;99.90;;;;;;10420808;28;20255;-54
2024/04/04 21:53:00;;;;;;;49.08;7.07;;;12.50;99.90;;;;;;10416516;28;20045;-52
2024/04/04 21:58:04;;;;;;;34.88;5.38;;;12.40;99.90;;;;;;10411424;28;20053;-55
2024/04/04 22:03:06;;;;;;;33.17;5.07;;;12.50;99.90;;;;;;10418311;28;20045;-54
2024/04/04 22:08:14;;;;;;;43.27;8.27;;;12.40;99.90;;;;;;10419719;28;20140;-55
2024/04/04 22:13:22;;;;;;;49.60;6.60;;;12.40;99.90;;;;;;10422725;28;20583;-51
2024/04/04 22:18:25;;;;;;;53.78;8.05;;;12.50;99.90;;;;;;10418848;28;20195;-53
2024/04/04 22:23:30;;;;;;;42.70;5.47;;;12.50;99.90;;;;;;10410182;28;20057;-51
2024/04/04 22:28:37;;;;;;;43.28;5.82;;;12.50;99.90;;;;;;10415291;28;20217;-54
2024/04/04 22:33:40;;;;;;;47.00;8.27;;;12.30;99.90;;;;;;10415341;28;20071;-54
2024/04/04 22:38:43;;;;;;;32.10;5.78;;;12.40;99.90;;;;;;10415237;28;20049;-55
2024/04/04 22:43:48;;;;;;;;;;;12.30;99.90;;;;;;10411533;28;20636;-53
2024/04/04 22:48:56;;;;;;;44.15;6.53;;;12.20;99.90;;;;;;10415186;28;19960;-55
2024/04/04 22:53:59;;;;;;;41.50;7.18;;;12.40;99.90;;;;;;10414934;28;20852;-56
2024/04/04 22:59:02;;;;;;;39.10;7.47;;;12.30;99.90;;;;;;10414037;28;20053;-54
2024/04/04 23:04:05;;;;;;;59.75;8.18;;;12.20;99.90;;;;;;10413160;28;20049;-52
2024/04/04 23:09:16;;;;;;;45.78;6.13;;;12.20;99.90;;;;;;10416066;28;20052;-56
2024/04/04 23:14:20;;;;;;;48.05;8.02;;;12.30;99.90;;;;;;10416193;28;20060;-55
2024/04/04 23:19:26;;;;;;;31.58;4.57;;;12.20;99.90;;;;;;10415454;28;20071;-54
2024/04/04 23:24:34;;;;;;;25.85;4.18;;;12.40;99.90;;;;;;10406426;28;20083;-55
2024/04/04 23:29:43;;;;;;;42.33;5.22;;;12.50;99.90;;;;;;10410478;28;20053;-55
2024/04/04 23:34:45;;;;;;;51.10;6.45;;;12.40;99.90;;;;;;10409597;28;20091;-50
2024/04/04 23:39:51;;;;;;;40.67;6.07;;;12.30;99.90;;;;;;10413180;28;20048;-55
2024/04/04 23:44:57;;;;;;;43.35;5.40;;;12.30;99.90;;;;;;10412427;28;20166;-55
2024/04/04 23:49:59;;;;;;;54.35;7.65;;;12.30;99.90;;;;;;10408701;28;20859;-54
2024/04/04 23:55:24;;;;;;;36.97;5.33;;;12.40;99.90;;;;;;10413338;28;20078;-52
